sensor_id;sensor_type;location;lat;lon;timestamp;temperature;humidity
56298;DHT22;42208;6.376;-10.782;2023-07-20T00:00:56;25.90;99.90
56298;DHT22;42208;6.376;-10.782;2023-07-20T00:03:24;25.90;99.90
56298;DHT22;42208;6.376;-10.782;2023-07-20T00:05:53;25.90;99.90
56298;DHT22;42208;6.376;-10.782;2023-07-20T00:08:21;26.00;99.90
56298;DHT22;42208;6.376;-10.782;2023-07-20T00:10:50;25.90;99.90
56298;DHT22;42208;6.376;-10.782;2023-07-20T00:13:18;25.90;99.90
56298;DHT22;42208;6.376;-10.782;2023-07-20T00:15:47;25.90;99.90
56298;DHT22;42208;6.376;-10.782;2023-07-20T00:18:15;26.00;99.90
56298;DHT22;42208;6.376;-10.782;2023-07-20T00:20:44;25.90;99.90
56298;DHT22;42208;6.376;-10.782;2023-07-20T00:23:12;26.00;99.90
56298;DHT22;42208;6.376;-10.782;2023-07-20T00:25:41;26.00;99.90
56298;DHT22;42208;6.376;-10.782;2023-07-20T00:28:09;26.00;99.90
56298;DHT22;42208;6.376;-10.782;2023-07-20T00:30:38;26.00;99.90
56298;DHT22;42208;6.376;-10.782;2023-07-20T00:33:11;26.00;99.90
56298;DHT22;42208;6.376;-10.782;2023-07-20T00:35:40;26.00;99.90
56298;DHT22;42208;6.376;-10.782;2023-07-20T00:38:08;26.00;99.90
56298;DHT22;42208;6.376;-10.782;2023-07-20T00:40:40;26.10;99.90
56298;DHT22;42208;6.376;-10.782;2023-07-20T00:43:09;26.00;99.90
56298;DHT22;42208;6.376;-10.782;2023-07-20T00:45:38;26.00;99.90
56298;DHT22;42208;6.376;-10.782;2023-07-20T00:48:07;26.00;99.90
56298;DHT22;42208;6.376;-10.782;2023-07-20T00:50:36;26.10;99.90
56298;DHT22;42208;6.376;-10.782;2023-07-20T00:53:05;26.00;99.90
56298;DHT22;42208;6.376;-10.782;2023-07-20T00:55:34;26.00;99.90
56298;DHT22;42208;6.376;-10.782;2023-07-20T00:58:03;25.90;99.90
56298;DHT22;42208;6.376;-10.782;2023-07-20T01:00:31;26.00;99.90
56298;DHT22;42208;6.376;-10.782;2023-07-20T01:03:00;26.00;99.90
56298;DHT22;42208;6.376;-10.782;2023-07-20T01:05:48;26.00;99.90
56298;DHT22;42208;6.376;-10.782;2023-07-20T01:08:32;25.90;99.90
56298;DHT22;42208;6.376;-10.782;2023-07-20T01:11:13;25.90;99.90
56298;DHT22;42208;6.376;-10.782;2023-07-20T01:13:44;25.90;99.90
56298;DHT22;42208;6.376;-10.782;2023-07-20T01:16:13;25.80;99.90
56298;DHT22;42208;6.376;-10.782;2023-07-20T01:18:42;25.80;99.90
56298;DHT22;42208;6.376;-10.782;2023-07-20T01:21:15;25.70;99.90
56298;DHT22;42208;6.376;-10.782;2023-07-20T01:32:31;25.80;99.90
56298;DHT22;42208;6.376;-10.782;2023-07-20T01:35:01;25.80;99.90
56298;DHT22;42208;6.376;-10.782;2023-07-20T01:37:31;25.80;99.90
56298;DHT22;42208;6.376;-10.782;2023-07-20T01:40:00;25.80;99.90
56298;DHT22;42208;6.376;-10.782;2023-07-20T01:42:29;25.90;99.90
56298;DHT22;42208;6.376;-10.782;2023-07-20T01:44:58;25.80;99.90
56298;DHT22;42208;6.376;-10.782;2023-07-20T01:47:26;25.80;99.90
56298;DHT22;42208;6.376;-10.782;2023-07-20T01:49:55;25.80;99.90
56298;DHT22;42208;6.376;-10.782;2023-07-20T01:52:23;25.90;99.90
56298;DHT22;42208;6.376;-10.782;2023-07-20T01:54:51;25.80;99.90
56298;DHT22;42208;6.376;-10.782;2023-07-20T01:57:20;25.80;99.90
56298;DHT22;42208;6.376;-10.782;2023-07-20T01:59:48;25.80;99.90
56298;DHT22;42208;6.376;-10.782;2023-07-20T02:02:17;25.80;99.90
56298;DHT22;42208;6.376;-10.782;2023-07-20T02:04:45;25.80;99.90
56298;DHT22;42208;6.376;-10.782;2023-07-20T02:07:14;25.80;99.90
56298;DHT22;42208;6.376;-10.782;2023-07-20T02:09:43;25.80;99.90
56298;DHT22;42208;6.376;-10.782;2023-07-20T02:12:11;25.80;99.90
56298;DHT22;42208;6.376;-10.782;2023-07-20T02:14:40;25.80;99.90
56298;DHT22;42208;6.376;-10.782;2023-07-20T02:17:08;25.80;99.90
56298;DHT22;42208;6.376;-10.782;2023-07-20T02:19:37;25.80;99.90
56298;DHT22;42208;6.376;-10.782;2023-07-20T02:22:06;25.90;99.90
56298;DHT22;42208;6.376;-10.782;2023-07-20T02:24:34;25.80;99.90
56298;DHT22;42208;6.376;-10.782;2023-07-20T02:27:03;25.80;99.90
56298;DHT22;42208;6.376;-10.782;2023-07-20T02:29:32;25.80;99.90
56298;DHT22;42208;6.376;-10.782;2023-07-20T02:32:00;25.80;99.90
56298;DHT22;42208;6.376;-10.782;2023-07-20T02:34:29;25.80;99.90
56298;DHT22;42208;6.376;-10.782;2023-07-20T02:36:57;25.80;99.90
56298;DHT22;42208;6.376;-10.782;2023-07-20T02:39:27;25.80;99.90
56298;DHT22;42208;6.376;-10.782;2023-07-20T02:41:56;25.80;99.90
56298;DHT22;42208;6.376;-10.782;2023-07-20T02:44:24;25.80;99.90
56298;DHT22;42208;6.376;-10.782;2023-07-20T02:46:53;25.80;99.90
56298;DHT22;42208;6.376;-10.782;2023-07-20T02:49:21;25.80;99.90
56298;DHT22;42208;6.376;-10.782;2023-07-20T02:51:50;25.80;99.90
56298;DHT22;42208;6.376;-10.782;2023-07-20T02:54:19;25.90;99.90
56298;DHT22;42208;6.376;-10.782;2023-07-20T02:56:47;25.90;99.90
56298;DHT22;42208;6.376;-10.782;2023-07-20T02:59:16;25.80;99.90
56298;DHT22;42208;6.376;-10.782;2023-07-20T03:01:44;25.90;99.90
56298;DHT22;42208;6.376;-10.782;2023-07-20T03:04:13;25.90;99.90
56298;DHT22;42208;6.376;-10.782;2023-07-20T03:06:41;25.90;99.90
56298;DHT22;42208;6.376;-10.782;2023-07-20T03:09:10;25.90;99.90
56298;DHT22;42208;6.376;-10.782;2023-07-20T03:11:38;25.90;99.90
56298;DHT22;42208;6.376;-10.782;2023-07-20T03:14:07;26.00;99.90
56298;DHT22;42208;6.376;-10.782;2023-07-20T03:16:36;25.90;99.90
56298;DHT22;42208;6.376;-10.782;2023-07-20T03:19:04;25.90;99.90
56298;DHT22;42208;6.376;-10.782;2023-07-20T03:21:33;26.00;99.90
56298;DHT22;42208;6.376;-10.782;2023-07-20T03:24:01;26.00;99.90
56298;DHT22;42208;6.376;-10.782;2023-07-20T03:26:30;26.00;99.90
56298;DHT22;42208;6.376;-10.782;2023-07-20T03:28:59;26.00;99.90
56298;DHT22;42208;6.376;-10.782;2023-07-20T03:31:28;26.00;99.90
56298;DHT22;42208;6.376;-10.782;2023-07-20T03:33:57;26.00;99.90
56298;DHT22;42208;6.376;-10.782;2023-07-20T03:36:26;26.00;99.90
56298;DHT22;42208;6.376;-10.782;2023-07-20T03:38:54;26.00;99.90
56298;DHT22;42208;6.376;-10.782;2023-07-20T03:41:22;26.00;99.90
56298;DHT22;42208;6.376;-10.782;2023-07-20T03:43:51;26.00;99.90
56298;DHT22;42208;6.376;-10.782;2023-07-20T03:46:20;26.00;99.90
56298;DHT22;42208;6.376;-10.782;2023-07-20T03:48:49;26.00;99.90
56298;DHT22;42208;6.376;-10.782;2023-07-20T03:51:17;26.00;99.90
56298;DHT22;42208;6.376;-10.782;2023-07-20T03:53:45;26.00;99.90
56298;DHT22;42208;6.376;-10.782;2023-07-20T03:56:14;26.00;99.90
56298;DHT22;42208;6.376;-10.782;2023-07-20T03:58:42;26.00;99.90
56298;DHT22;42208;6.376;-10.782;2023-07-20T04:01:11;26.00;99.90
56298;DHT22;42208;6.376;-10.782;2023-07-20T04:03:39;26.00;99.90
56298;DHT22;42208;6.376;-10.782;2023-07-20T04:06:08;25.90;99.90
56298;DHT22;42208;6.376;-10.782;2023-07-20T04:08:37;25.90;99.90
56298;DHT22;42208;6.376;-10.782;2023-07-20T04:11:05;25.90;99.90
56298;DHT22;42208;6.376;-10.782;2023-07-20T04:13:34;25.90;99.90
56298;DHT22;42208;6.376;-10.782;2023-07-20T04:16:02;25.90;99.90
56298;DHT22;42208;6.376;-10.782;2023-07-20T04:18:31;25.90;99.90
56298;DHT22;42208;6.376;-10.782;2023-07-20T04:20:59;25.90;99.90
56298;DHT22;42208;6.376;-10.782;2023-07-20T04:23:27;25.90;99.90
56298;DHT22;42208;6.376;-10.782;2023-07-20T04:25:57;26.00;99.90
56298;DHT22;42208;6.376;-10.782;2023-07-20T04:28:25;26.00;99.90
56298;DHT22;42208;6.376;-10.782;2023-07-20T04:30:53;26.00;99.90
56298;DHT22;42208;6.376;-10.782;2023-07-20T04:33:22;26.00;99.90
56298;DHT22;42208;6.376;-10.782;2023-07-20T04:35:51;26.00;99.90
56298;DHT22;42208;6.376;-10.782;2023-07-20T04:38:29;26.00;99.90
56298;DHT22;42208;6.376;-10.782;2023-07-20T04:41:19;26.00;99.90
56298;DHT22;42208;6.376;-10.782;2023-07-20T04:43:49;26.00;99.90
56298;DHT22;42208;6.376;-10.782;2023-07-20T04:46:27;26.00;99.90
56298;DHT22;42208;6.376;-10.782;2023-07-20T04:48:57;26.00;99.90
56298;DHT22;42208;6.376;-10.782;2023-07-20T04:51:29;26.10;99.90
56298;DHT22;42208;6.376;-10.782;2023-07-20T04:53:58;26.00;99.90
56298;DHT22;42208;6.376;-10.782;2023-07-20T04:56:31;26.00;99.90
56298;DHT22;42208;6.376;-10.782;2023-07-20T04:59:01;26.00;99.90
56298;DHT22;42208;6.376;-10.782;2023-07-20T05:01:29;26.00;99.90
56298;DHT22;42208;6.376;-10.782;2023-07-20T05:03:57;25.90;99.90
56298;DHT22;42208;6.376;-10.782;2023-07-20T05:06:26;25.90;99.90
56298;DHT22;42208;6.376;-10.782;2023-07-20T05:08:55;26.00;99.90
56298;DHT22;42208;6.376;-10.782;2023-07-20T05:11:23;25.90;99.90
56298;DHT22;42208;6.376;-10.782;2023-07-20T05:13:52;25.90;99.90
56298;DHT22;42208;6.376;-10.782;2023-07-20T05:16:20;25.90;99.90
56298;DHT22;42208;6.376;-10.782;2023-07-20T05:18:50;25.90;99.90
56298;DHT22;42208;6.376;-10.782;2023-07-20T05:21:19;25.90;99.90
56298;DHT22;42208;6.376;-10.782;2023-07-20T05:23:48;25.80;99.90
56298;DHT22;42208;6.376;-10.782;2023-07-20T05:26:16;25.90;99.90
56298;DHT22;42208;6.376;-10.782;2023-07-20T05:28:45;25.80;99.90
56298;DHT22;42208;6.376;-10.782;2023-07-20T05:31:13;25.80;99.90
56298;DHT22;42208;6.376;-10.782;2023-07-20T05:33:42;25.80;99.90
56298;DHT22;42208;6.376;-10.782;2023-07-20T05:36:26;25.80;99.90
56298;DHT22;42208;6.376;-10.782;2023-07-20T05:38:54;25.70;99.90
56298;DHT22;42208;6.376;-10.782;2023-07-20T05:41:23;25.70;99.90
56298;DHT22;42208;6.376;-10.782;2023-07-20T05:43:51;25.70;99.90
56298;DHT22;42208;6.376;-10.782;2023-07-20T05:46:20;25.70;99.90
56298;DHT22;42208;6.376;-10.782;2023-07-20T05:48:49;25.60;99.90
56298;DHT22;42208;6.376;-10.782;2023-07-20T05:51:18;25.60;99.90
56298;DHT22;42208;6.376;-10.782;2023-07-20T05:53:46;25.60;99.90
56298;DHT22;42208;6.376;-10.782;2023-07-20T05:56:14;25.60;99.90
56298;DHT22;42208;6.376;-10.782;2023-07-20T05:58:43;25.60;99.90
56298;DHT22;42208;6.376;-10.782;2023-07-20T06:01:11;25.60;99.90
56298;DHT22;42208;6.376;-10.782;2023-07-20T06:03:40;25.60;99.90
56298;DHT22;42208;6.376;-10.782;2023-07-20T06:06:08;25.60;99.90
56298;DHT22;42208;6.376;-10.782;2023-07-20T06:08:37;25.60;99.90
56298;DHT22;42208;6.376;-10.782;2023-07-20T06:11:06;25.60;99.90
56298;DHT22;42208;6.376;-10.782;2023-07-20T06:13:34;25.60;99.90
56298;DHT22;42208;6.376;-10.782;2023-07-20T06:16:03;25.60;99.90
56298;DHT22;42208;6.376;-10.782;2023-07-20T06:20:13;25.60;99.90
56298;DHT22;42208;6.376;-10.782;2023-07-20T06:22:41;25.60;99.90
56298;DHT22;42208;6.376;-10.782;2023-07-20T06:25:10;25.60;99.90
56298;DHT22;42208;6.376;-10.782;2023-07-20T06:27:38;25.60;99.90
56298;DHT22;42208;6.376;-10.782;2023-07-20T06:30:07;25.60;99.90
56298;DHT22;42208;6.376;-10.782;2023-07-20T06:32:36;25.60;99.90
56298;DHT22;42208;6.376;-10.782;2023-07-20T06:35:05;25.60;99.90
56298;DHT22;42208;6.376;-10.782;2023-07-20T06:37:34;25.60;99.90
56298;DHT22;42208;6.376;-10.782;2023-07-20T06:40:03;25.60;99.90
56298;DHT22;42208;6.376;-10.782;2023-07-20T06:42:34;25.60;99.90
56298;DHT22;42208;6.376;-10.782;2023-07-20T06:45:06;25.60;99.90
56298;DHT22;42208;6.376;-10.782;2023-07-20T06:47:34;25.60;99.90
56298;DHT22;42208;6.376;-10.782;2023-07-20T06:50:03;25.70;99.90
56298;DHT22;42208;6.376;-10.782;2023-07-20T06:52:32;25.70;99.90
56298;DHT22;42208;6.376;-10.782;2023-07-20T06:55:00;25.60;99.90
56298;DHT22;42208;6.376;-10.782;2023-07-20T06:57:32;25.70;99.90
56298;DHT22;42208;6.376;-10.782;2023-07-20T07:00:01;25.70;99.90
56298;DHT22;42208;6.376;-10.782;2023-07-20T07:02:29;25.70;99.90
56298;DHT22;42208;6.376;-10.782;2023-07-20T07:04:58;25.70;99.90
56298;DHT22;42208;6.376;-10.782;2023-07-20T07:07:45;25.70;99.90
56298;DHT22;42208;6.376;-10.782;2023-07-20T07:10:14;25.70;99.90
56298;DHT22;42208;6.376;-10.782;2023-07-20T07:12:42;25.80;99.90
56298;DHT22;42208;6.376;-10.782;2023-07-20T07:15:11;25.70;99.90
56298;DHT22;42208;6.376;-10.782;2023-07-20T07:17:39;25.70;99.90
56298;DHT22;42208;6.376;-10.782;2023-07-20T07:20:08;25.70;99.90
56298;DHT22;42208;6.376;-10.782;2023-07-20T07:22:47;25.70;99.90
56298;DHT22;42208;6.376;-10.782;2023-07-20T07:25:21;25.80;99.90
56298;DHT22;42208;6.376;-10.782;2023-07-20T07:27:51;25.80;99.90
56298;DHT22;42208;6.376;-10.782;2023-07-20T07:30:20;25.80;99.90
56298;DHT22;42208;6.376;-10.782;2023-07-20T07:32:48;25.80;99.90
56298;DHT22;42208;6.376;-10.782;2023-07-20T07:35:17;25.80;99.90
56298;DHT22;42208;6.376;-10.782;2023-07-20T07:37:45;25.90;99.90
56298;DHT22;42208;6.376;-10.782;2023-07-20T07:40:30;25.90;99.90
56298;DHT22;42208;6.376;-10.782;2023-07-20T07:42:59;25.90;99.90
56298;DHT22;42208;6.376;-10.782;2023-07-20T07:45:27;25.90;99.90
56298;DHT22;42208;6.376;-10.782;2023-07-20T07:47:56;25.90;99.90
56298;DHT22;42208;6.376;-10.782;2023-07-20T07:50:24;25.90;99.90
56298;DHT22;42208;6.376;-10.782;2023-07-20T07:52:53;25.80;99.90
56298;DHT22;42208;6.376;-10.782;2023-07-20T07:55:21;25.80;99.90
56298;DHT22;42208;6.376;-10.782;2023-07-20T07:57:50;25.80;99.90
56298;DHT22;42208;6.376;-10.782;2023-07-20T08:00:19;25.80;99.90
56298;DHT22;42208;6.376;-10.782;2023-07-20T08:02:47;25.70;99.90
56298;DHT22;42208;6.376;-10.782;2023-07-20T08:05:16;25.70;99.90
56298;DHT22;42208;6.376;-10.782;2023-07-20T08:07:45;25.70;99.90
56298;DHT22;42208;6.376;-10.782;2023-07-20T08:10:13;25.70;99.90
56298;DHT22;42208;6.376;-10.782;2023-07-20T08:12:42;25.70;99.90
56298;DHT22;42208;6.376;-10.782;2023-07-20T08:15:11;25.70;99.90
56298;DHT22;42208;6.376;-10.782;2023-07-20T08:17:41;25.70;99.90
56298;DHT22;42208;6.376;-10.782;2023-07-20T08:20:13;25.80;99.90
56298;DHT22;42208;6.376;-10.782;2023-07-20T08:22:42;25.80;99.90
56298;DHT22;42208;6.376;-10.782;2023-07-20T08:25:13;25.90;99.90
56298;DHT22;42208;6.376;-10.782;2023-07-20T08:27:43;25.90;99.90
56298;DHT22;42208;6.376;-10.782;2023-07-20T08:30:13;26.00;99.90
56298;DHT22;42208;6.376;-10.782;2023-07-20T08:32:41;26.00;99.90
56298;DHT22;42208;6.376;-10.782;2023-07-20T08:35:10;26.10;99.90
56298;DHT22;42208;6.376;-10.782;2023-07-20T08:37:42;26.10;99.90
56298;DHT22;42208;6.376;-10.782;2023-07-20T08:40:11;26.10;99.90
56298;DHT22;42208;6.376;-10.782;2023-07-20T08:42:42;26.10;99.90
56298;DHT22;42208;6.376;-10.782;2023-07-20T08:45:13;26.10;99.90
56298;DHT22;42208;6.376;-10.782;2023-07-20T08:47:42;26.10;99.90
56298;DHT22;42208;6.376;-10.782;2023-07-20T08:50:11;26.10;99.90
56298;DHT22;42208;6.376;-10.782;2023-07-20T08:52:41;26.10;99.90
56298;DHT22;42208;6.376;-10.782;2023-07-20T08:55:13;26.10;99.90
56298;DHT22;42208;6.376;-10.782;2023-07-20T08:57:43;26.10;99.90
56298;DHT22;42208;6.376;-10.782;2023-07-20T09:00:13;26.10;99.90
56298;DHT22;42208;6.376;-10.782;2023-07-20T09:02:45;26.10;99.90
56298;DHT22;42208;6.376;-10.782;2023-07-20T09:05:15;26.10;99.90
56298;DHT22;42208;6.376;-10.782;2023-07-20T09:07:44;26.10;99.90
56298;DHT22;42208;6.376;-10.782;2023-07-20T09:10:15;26.10;99.90
56298;DHT22;42208;6.376;-10.782;2023-07-20T09:12:44;26.10;99.90
56298;DHT22;42208;6.376;-10.782;2023-07-20T09:15:13;26.10;99.90
56298;DHT22;42208;6.376;-10.782;2023-07-20T09:17:46;26.10;99.90
56298;DHT22;42208;6.376;-10.782;2023-07-20T09:20:18;26.20;99.90
56298;DHT22;42208;6.376;-10.782;2023-07-20T09:22:51;26.20;99.90
56298;DHT22;42208;6.376;-10.782;2023-07-20T09:25:20;26.30;99.90
56298;DHT22;42208;6.376;-10.782;2023-07-20T09:27:50;26.30;99.90
56298;DHT22;42208;6.376;-10.782;2023-07-20T09:30:19;26.30;99.90
56298;DHT22;42208;6.376;-10.782;2023-07-20T09:33:00;26.40;99.90
56298;DHT22;42208;6.376;-10.782;2023-07-20T09:35:29;26.40;99.90
56298;DHT22;42208;6.376;-10.782;2023-07-20T09:38:09;26.40;99.90
56298;DHT22;42208;6.376;-10.782;2023-07-20T09:40:42;26.40;99.90
56298;DHT22;42208;6.376;-10.782;2023-07-20T09:43:15;26.40;99.90
56298;DHT22;42208;6.376;-10.782;2023-07-20T09:45:58;26.40;99.90
56298;DHT22;42208;6.376;-10.782;2023-07-20T09:48:29;26.30;99.90
56298;DHT22;42208;6.376;-10.782;2023-07-20T09:51:02;26.40;99.90
56298;DHT22;42208;6.376;-10.782;2023-07-20T09:53:30;26.40;99.90
56298;DHT22;42208;6.376;-10.782;2023-07-20T09:56:01;26.40;99.90
56298;DHT22;42208;6.376;-10.782;2023-07-20T09:58:31;26.50;99.90
56298;DHT22;42208;6.376;-10.782;2023-07-20T10:01:03;26.50;99.90
56298;DHT22;42208;6.376;-10.782;2023-07-20T10:03:37;26.60;99.90
56298;DHT22;42208;6.376;-10.782;2023-07-20T10:06:06;26.60;99.90
56298;DHT22;42208;6.376;-10.782;2023-07-20T10:08:39;26.60;99.90
56298;DHT22;42208;6.376;-10.782;2023-07-20T10:11:13;26.70;99.90
56298;DHT22;42208;6.376;-10.782;2023-07-20T10:13:44;26.70;99.90
56298;DHT22;42208;6.376;-10.782;2023-07-20T10:16:34;26.70;99.90
56298;DHT22;42208;6.376;-10.782;2023-07-20T10:19:49;26.70;99.90
56298;DHT22;42208;6.376;-10.782;2023-07-20T10:22:33;26.80;99.90
56298;DHT22;42208;6.376;-10.782;2023-07-20T10:25:09;26.90;99.90
56298;DHT22;42208;6.376;-10.782;2023-07-20T10:27:38;27.10;99.90
56298;DHT22;42208;6.376;-10.782;2023-07-20T10:30:08;27.10;99.90
56298;DHT22;42208;6.376;-10.782;2023-07-20T10:32:37;27.10;99.90
56298;DHT22;42208;6.376;-10.782;2023-07-20T10:35:18;27.10;99.90
56298;DHT22;42208;6.376;-10.782;2023-07-20T10:37:53;27.10;99.90
56298;DHT22;42208;6.376;-10.782;2023-07-20T10:40:28;27.00;99.90
56298;DHT22;42208;6.376;-10.782;2023-07-20T10:45:50;27.00;99.90
56298;DHT22;42208;6.376;-10.782;2023-07-20T10:48:24;27.00;99.90
56298;DHT22;42208;6.376;-10.782;2023-07-20T10:51:12;27.10;99.90
56298;DHT22;42208;6.376;-10.782;2023-07-20T10:53:41;27.20;99.90
56298;DHT22;42208;6.376;-10.782;2023-07-20T10:56:13;27.10;99.90
56298;DHT22;42208;6.376;-10.782;2023-07-20T10:58:42;27.10;99.90
56298;DHT22;42208;6.376;-10.782;2023-07-20T11:01:17;27.20;99.90
56298;DHT22;42208;6.376;-10.782;2023-07-20T11:03:50;27.30;99.90
56298;DHT22;42208;6.376;-10.782;2023-07-20T11:09:06;27.20;99.90
56298;DHT22;42208;6.376;-10.782;2023-07-20T11:11:38;27.20;99.90
56298;DHT22;42208;6.376;-10.782;2023-07-20T11:14:09;27.10;99.90
56298;DHT22;42208;6.376;-10.782;2023-07-20T11:16:45;27.20;99.90
56298;DHT22;42208;6.376;-10.782;2023-07-20T11:19:26;27.10;99.90
56298;DHT22;42208;6.376;-10.782;2023-07-20T11:21:58;27.10;99.90
56298;DHT22;42208;6.376;-10.782;2023-07-20T11:24:31;27.00;99.90
56298;DHT22;42208;6.376;-10.782;2023-07-20T11:27:01;26.90;99.90
56298;DHT22;42208;6.376;-10.782;2023-07-20T11:29:29;26.90;99.90
56298;DHT22;42208;6.376;-10.782;2023-07-20T11:32:04;26.90;99.90
56298;DHT22;42208;6.376;-10.782;2023-07-20T11:34:34;26.90;99.90
56298;DHT22;42208;6.376;-10.782;2023-07-20T11:37:03;26.90;99.90
56298;DHT22;42208;6.376;-10.782;2023-07-20T11:39:36;26.90;99.90
56298;DHT22;42208;6.376;-10.782;2023-07-20T11:42:06;26.90;99.90
56298;DHT22;42208;6.376;-10.782;2023-07-20T11:44:34;26.90;99.90
56298;DHT22;42208;6.376;-10.782;2023-07-20T11:47:06;26.90;99.90
56298;DHT22;42208;6.376;-10.782;2023-07-20T11:49:43;26.90;99.90
56298;DHT22;42208;6.376;-10.782;2023-07-20T11:52:14;26.90;99.90
56298;DHT22;42208;6.376;-10.782;2023-07-20T11:54:43;26.90;99.90
56298;DHT22;42208;6.376;-10.782;2023-07-20T11:57:19;26.80;99.90
56298;DHT22;42208;6.376;-10.782;2023-07-20T11:59:56;26.80;99.90
56298;DHT22;42208;6.376;-10.782;2023-07-20T12:02:27;26.80;99.90
56298;DHT22;42208;6.376;-10.782;2023-07-20T12:04:57;26.80;99.90
56298;DHT22;42208;6.376;-10.782;2023-07-20T12:07:28;26.80;99.90
56298;DHT22;42208;6.376;-10.782;2023-07-20T12:10:05;26.80;99.90
56298;DHT22;42208;6.376;-10.782;2023-07-20T12:12:34;26.90;99.90
56298;DHT22;42208;6.376;-10.782;2023-07-20T12:15:27;26.90;99.90
56298;DHT22;42208;6.376;-10.782;2023-07-20T12:18:00;26.90;99.90
56298;DHT22;42208;6.376;-10.782;2023-07-20T12:20:31;27.00;99.90
56298;DHT22;42208;6.376;-10.782;2023-07-20T12:23:02;27.00;99.90
56298;DHT22;42208;6.376;-10.782;2023-07-20T12:25:38;27.00;99.90
56298;DHT22;42208;6.376;-10.782;2023-07-20T12:28:09;27.10;99.90
56298;DHT22;42208;6.376;-10.782;2023-07-20T12:30:39;27.10;99.90
56298;DHT22;42208;6.376;-10.782;2023-07-20T12:33:08;27.10;99.90
56298;DHT22;42208;6.376;-10.782;2023-07-20T12:35:37;27.10;99.90
56298;DHT22;42208;6.376;-10.782;2023-07-20T12:38:06;27.10;99.90
56298;DHT22;42208;6.376;-10.782;2023-07-20T12:40:34;27.10;99.90
56298;DHT22;42208;6.376;-10.782;2023-07-20T12:43:03;27.10;99.90
56298;DHT22;42208;6.376;-10.782;2023-07-20T12:45:42;27.10;99.90
56298;DHT22;42208;6.376;-10.782;2023-07-20T12:48:11;27.00;99.90
56298;DHT22;42208;6.376;-10.782;2023-07-20T12:50:40;27.00;99.90
56298;DHT22;42208;6.376;-10.782;2023-07-20T12:53:09;27.00;99.90
56298;DHT22;42208;6.376;-10.782;2023-07-20T12:55:40;26.80;99.90
56298;DHT22;42208;6.376;-10.782;2023-07-20T12:58:09;26.60;99.90
56298;DHT22;42208;6.376;-10.782;2023-07-20T13:00:38;26.10;99.90
56298;DHT22;42208;6.376;-10.782;2023-07-20T13:03:07;25.90;99.90
56298;DHT22;42208;6.376;-10.782;2023-07-20T13:05:36;25.80;99.90
56298;DHT22;42208;6.376;-10.782;2023-07-20T13:08:08;25.70;99.90
56298;DHT22;42208;6.376;-10.782;2023-07-20T13:10:41;25.60;99.90
56298;DHT22;42208;6.376;-10.782;2023-07-20T13:13:11;25.50;99.90
56298;DHT22;42208;6.376;-10.782;2023-07-20T13:15:45;25.40;99.90
56298;DHT22;42208;6.376;-10.782;2023-07-20T13:18:14;25.50;99.90
56298;DHT22;42208;6.376;-10.782;2023-07-20T13:20:43;25.40;99.90
56298;DHT22;42208;6.376;-10.782;2023-07-20T13:23:11;25.30;99.90
56298;DHT22;42208;6.376;-10.782;2023-07-20T13:25:40;25.40;99.90
56298;DHT22;42208;6.376;-10.782;2023-07-20T13:28:09;25.30;99.90
56298;DHT22;42208;6.376;-10.782;2023-07-20T13:30:37;25.30;99.90
56298;DHT22;42208;6.376;-10.782;2023-07-20T13:33:08;25.30;99.90
56298;DHT22;42208;6.376;-10.782;2023-07-20T13:35:39;25.40;99.90
56298;DHT22;42208;6.376;-10.782;2023-07-20T13:38:28;25.40;99.90
56298;DHT22;42208;6.376;-10.782;2023-07-20T13:40:57;25.30;99.90
56298;DHT22;42208;6.376;-10.782;2023-07-20T13:43:26;25.30;99.90
56298;DHT22;42208;6.376;-10.782;2023-07-20T13:45:54;25.30;99.90
56298;DHT22;42208;6.376;-10.782;2023-07-20T13:48:23;25.30;99.90
56298;DHT22;42208;6.376;-10.782;2023-07-20T13:50:55;25.30;99.90
56298;DHT22;42208;6.376;-10.782;2023-07-20T13:53:27;25.30;99.90
56298;DHT22;42208;6.376;-10.782;2023-07-20T13:56:00;25.40;99.90
56298;DHT22;42208;6.376;-10.782;2023-07-20T13:58:32;25.50;99.90
56298;DHT22;42208;6.376;-10.782;2023-07-20T14:01:01;25.40;99.90
56298;DHT22;42208;6.376;-10.782;2023-07-20T14:03:30;25.40;99.90
56298;DHT22;42208;6.376;-10.782;2023-07-20T14:05:58;25.40;99.90
56298;DHT22;42208;6.376;-10.782;2023-07-20T14:08:29;25.50;99.90
56298;DHT22;42208;6.376;-10.782;2023-07-20T14:10:58;25.50;99.90
56298;DHT22;42208;6.376;-10.782;2023-07-20T14:13:29;25.60;99.90
56298;DHT22;42208;6.376;-10.782;2023-07-20T14:16:13;25.50;99.90
56298;DHT22;42208;6.376;-10.782;2023-07-20T14:18:41;25.50;99.90
56298;DHT22;42208;6.376;-10.782;2023-07-20T14:21:10;25.40;99.90
56298;DHT22;42208;6.376;-10.782;2023-07-20T14:23:39;25.30;99.90
56298;DHT22;42208;6.376;-10.782;2023-07-20T14:26:09;25.30;99.90
56298;DHT22;42208;6.376;-10.782;2023-07-20T14:28:44;25.40;99.90
56298;DHT22;42208;6.376;-10.782;2023-07-20T14:31:12;25.50;99.90
56298;DHT22;42208;6.376;-10.782;2023-07-20T14:33:41;25.40;99.90
56298;DHT22;42208;6.376;-10.782;2023-07-20T14:36:09;25.60;99.90
56298;DHT22;42208;6.376;-10.782;2023-07-20T14:38:38;25.60;99.90
56298;DHT22;42208;6.376;-10.782;2023-07-20T14:41:07;25.50;99.90
56298;DHT22;42208;6.376;-10.782;2023-07-20T14:43:36;25.60;99.90
56298;DHT22;42208;6.376;-10.782;2023-07-20T14:46:04;25.60;99.90
56298;DHT22;42208;6.376;-10.782;2023-07-20T14:48:33;25.60;99.90
56298;DHT22;42208;6.376;-10.782;2023-07-20T14:51:02;25.60;99.90
56298;DHT22;42208;6.376;-10.782;2023-07-20T14:53:32;25.60;99.90
56298;DHT22;42208;6.376;-10.782;2023-07-20T14:56:03;25.70;99.90
56298;DHT22;42208;6.376;-10.782;2023-07-20T14:58:32;25.70;99.90
56298;DHT22;42208;6.376;-10.782;2023-07-20T15:01:03;25.60;99.90
56298;DHT22;42208;6.376;-10.782;2023-07-20T15:03:32;25.70;99.90
56298;DHT22;42208;6.376;-10.782;2023-07-20T15:06:01;25.80;99.90
56298;DHT22;42208;6.376;-10.782;2023-07-20T15:08:30;25.80;99.90
56298;DHT22;42208;6.376;-10.782;2023-07-20T15:11:00;25.80;99.90
56298;DHT22;42208;6.376;-10.782;2023-07-20T15:13:28;25.80;99.90
56298;DHT22;42208;6.376;-10.782;2023-07-20T15:15:57;25.80;99.90
56298;DHT22;42208;6.376;-10.782;2023-07-20T15:18:26;25.80;99.90
56298;DHT22;42208;6.376;-10.782;2023-07-20T15:21:14;25.80;99.90
56298;DHT22;42208;6.376;-10.782;2023-07-20T15:23:43;25.70;99.90
56298;DHT22;42208;6.376;-10.782;2023-07-20T15:26:12;25.70;99.90
56298;DHT22;42208;6.376;-10.782;2023-07-20T15:28:41;25.70;99.90
56298;DHT22;42208;6.376;-10.782;2023-07-20T15:31:10;25.80;99.90
56298;DHT22;42208;6.376;-10.782;2023-07-20T15:33:38;25.80;99.90
56298;DHT22;42208;6.376;-10.782;2023-07-20T15:36:08;25.80;99.90
56298;DHT22;42208;6.376;-10.782;2023-07-20T15:38:36;25.80;99.90
56298;DHT22;42208;6.376;-10.782;2023-07-20T15:41:07;25.70;99.90
56298;DHT22;42208;6.376;-10.782;2023-07-20T15:43:38;25.70;99.90
56298;DHT22;42208;6.376;-10.782;2023-07-20T15:46:43;25.50;99.90
56298;DHT22;42208;6.376;-10.782;2023-07-20T15:49:12;25.40;99.90
56298;DHT22;42208;6.376;-10.782;2023-07-20T15:51:41;25.30;99.90